createdAt,value
2023-03-27T00:01:08.093Z,1.60
2023-03-27T00:03:35.938Z,1.20
2023-03-27T00:06:04.066Z,1.40
2023-03-27T00:08:31.657Z,1.38
2023-03-27T00:10:58.605Z,1.00
2023-03-27T00:13:25.262Z,1.25
2023-03-27T00:15:54.065Z,0.80
2023-03-27T00:18:21.741Z,0.70
2023-03-27T00:20:48.343Z,0.60
2023-03-27T00:23:14.891Z,0.60
2023-03-27T00:25:42.220Z,0.95
2023-03-27T00:28:08.853Z,1.17
2023-03-27T00:30:36.126Z,1.20
2023-03-27T00:33:02.890Z,1.23
2023-03-27T00:35:29.977Z,0.85
2023-03-27T00:37:58.769Z,0.75
2023-03-27T00:40:25.607Z,0.88
2023-03-27T00:42:52.405Z,1.15
2023-03-27T00:45:19.926Z,1.15
2023-03-27T00:47:47.836Z,1.35
2023-03-27T00:50:16.894Z,0.95
2023-03-27T00:52:44.608Z,1.40
2023-03-27T00:55:14.302Z,1.02
2023-03-27T00:57:42.704Z,1.48
2023-03-27T01:00:13.639Z,1.13
2023-03-27T01:02:41.483Z,1.30
2023-03-27T01:05:08.400Z,1.38
2023-03-27T01:07:35.270Z,1.55
2023-03-27T01:10:01.922Z,1.20
2023-03-27T01:12:29.189Z,1.20
2023-03-27T01:14:55.983Z,1.05
2023-03-27T01:17:25.444Z,1.08
2023-03-27T01:19:57.909Z,1.63
2023-03-27T01:22:25.967Z,1.75
2023-03-27T01:25:01.314Z,1.10
2023-03-27T01:27:30.605Z,1.48
2023-03-27T01:30:00.815Z,1.10
2023-03-27T01:32:46.650Z,1.02
2023-03-27T01:35:33.040Z,1.10
2023-03-27T01:38:18.594Z,1.58
2023-03-27T01:40:51.869Z,0.80
2023-03-27T01:43:29.798Z,1.23
2023-03-27T01:46:11.779Z,1.05
2023-03-27T01:48:48.152Z,0.90
2023-03-27T01:51:25.435Z,1.10
2023-03-27T01:53:54.962Z,0.77
2023-03-27T01:56:32.651Z,0.80
2023-03-27T01:59:04.232Z,0.90
2023-03-27T02:01:34.313Z,0.73
2023-03-27T02:04:02.864Z,0.88
2023-03-27T02:06:36.901Z,3.15
2023-03-27T02:09:07.055Z,0.85
2023-03-27T02:11:36.627Z,1.40
2023-03-27T02:14:09.073Z,1.13
2023-03-27T02:16:41.305Z,1.20
2023-03-27T02:19:13.700Z,1.10
2023-03-27T02:21:40.207Z,1.15
2023-03-27T02:24:08.958Z,1.23
2023-03-27T02:26:35.997Z,2.47
2023-03-27T02:29:26.037Z,1.10
2023-03-27T02:32:16.818Z,1.17
2023-03-27T02:34:43.447Z,1.25
2023-03-27T02:37:19.296Z,0.85
2023-03-27T02:40:14.249Z,1.65
2023-03-27T02:45:13.299Z,1.17
2023-03-27T02:47:41.717Z,1.42
2023-03-27T02:50:09.779Z,1.60
2023-03-27T02:52:41.880Z,1.30
2023-03-27T02:55:10.693Z,1.52
2023-03-27T02:57:51.600Z,1.73
2023-03-27T03:00:34.004Z,0.90
2023-03-27T03:03:44.632Z,0.98
2023-03-27T03:06:32.063Z,1.20
2023-03-27T03:09:05.944Z,1.48
2023-03-27T03:11:36.971Z,1.15
2023-03-27T03:14:05.075Z,0.90
2023-03-27T03:16:33.965Z,1.10
2023-03-27T03:19:02.149Z,1.00
2023-03-27T03:21:28.898Z,1.10
2023-03-27T03:23:57.837Z,0.88
2023-03-27T03:26:27.165Z,1.02
2023-03-27T03:29:00.914Z,0.93
2023-03-27T03:31:43.149Z,0.70
2023-03-27T03:34:14.707Z,1.08
2023-03-27T03:36:42.186Z,1.08
2023-03-27T03:39:09.172Z,0.70
2023-03-27T03:41:36.015Z,0.82
2023-03-27T03:44:02.837Z,1.80
2023-03-27T03:46:29.619Z,1.00
2023-03-27T03:48:57.961Z,0.95
2023-03-27T03:51:25.888Z,0.90
2023-03-27T03:53:52.516Z,0.80
2023-03-27T03:56:19.184Z,0.98
2023-03-27T03:58:49.652Z,0.90
2023-03-27T04:01:20.758Z,1.33
2023-03-27T04:03:51.564Z,0.93
2023-03-27T04:06:21.248Z,0.90
2023-03-27T04:08:48.575Z,1.00
2023-03-27T04:11:44.374Z,1.27
2023-03-27T04:14:23.518Z,1.33
2023-03-27T04:16:52.867Z,1.13
2023-03-27T04:19:23.894Z,1.20
2023-03-27T04:21:58.401Z,1.40
2023-03-27T04:24:32.274Z,1.13
2023-03-27T04:27:01.284Z,1.30
2023-03-27T04:29:42.411Z,1.05
2023-03-27T04:32:32.165Z,1.30
2023-03-27T04:35:22.042Z,1.10
2023-03-27T04:37:56.567Z,1.00
2023-03-27T04:40:32.410Z,1.13
2023-03-27T04:42:59.262Z,1.08
2023-03-27T04:45:26.120Z,1.30
2023-03-27T04:47:58.590Z,0.98
2023-03-27T04:50:25.226Z,0.90
2023-03-27T04:52:52.549Z,1.40
2023-03-27T04:55:20.542Z,1.40
2023-03-27T04:57:49.966Z,1.13
2023-03-27T05:00:19.135Z,0.90
2023-03-27T05:02:46.798Z,0.82
2023-03-27T05:05:26.081Z,1.00
2023-03-27T05:07:53.040Z,0.90
2023-03-27T05:10:23.036Z,0.85
2023-03-27T05:12:52.470Z,0.98
2023-03-27T05:15:19.790Z,0.95
2023-03-27T05:17:53.241Z,1.10
2023-03-27T05:20:22.812Z,0.95
2023-03-27T05:22:52.139Z,1.05
2023-03-27T05:25:26.308Z,1.00
2023-03-27T05:27:54.992Z,1.10
2023-03-27T05:30:25.207Z,1.08
2023-03-27T05:33:05.298Z,1.55
2023-03-27T05:35:31.963Z,0.90
2023-03-27T05:37:59.185Z,0.93
2023-03-27T05:40:31.652Z,1.13
2023-03-27T05:42:58.413Z,0.70
2023-03-27T05:45:29.517Z,0.63
2023-03-27T05:47:57.595Z,0.98
2023-03-27T05:50:26.566Z,0.70
2023-03-27T05:52:58.266Z,1.00
2023-03-27T05:55:32.113Z,0.80
2023-03-27T05:57:58.967Z,0.80
2023-03-27T06:00:26.364Z,1.15
2023-03-27T06:02:56.420Z,1.00
2023-03-27T06:05:34.023Z,0.60
2023-03-27T06:08:02.447Z,0.85
2023-03-27T06:10:30.180Z,1.10
2023-03-27T06:13:20.546Z,1.40
2023-03-27T06:16:13.010Z,1.15
2023-03-27T06:19:09.427Z,1.60
2023-03-27T06:21:43.604Z,1.20
2023-03-27T06:24:11.314Z,1.10
2023-03-27T06:26:37.972Z,1.20
2023-03-27T06:29:08.003Z,1.27
2023-03-27T06:31:36.435Z,0.90
2023-03-27T06:34:09.783Z,0.98
2023-03-27T06:36:43.850Z,0.90
2023-03-27T06:39:12.175Z,0.98
2023-03-27T06:41:42.860Z,1.30
2023-03-27T06:44:36.041Z,1.27
2023-03-27T06:47:44.515Z,1.58
2023-03-27T06:50:25.298Z,0.93
2023-03-27T06:52:55.293Z,1.25
2023-03-27T06:55:44.670Z,1.17
2023-03-27T06:58:15.121Z,1.13
2023-03-27T07:00:41.902Z,1.17
2023-03-27T07:03:28.801Z,0.93
2023-03-27T07:06:14.291Z,0.95
2023-03-27T07:08:50.967Z,1.90
2023-03-27T07:11:18.665Z,2.03
2023-03-27T07:13:54.130Z,1.02
2023-03-27T07:16:28.285Z,3.03
2023-03-27T07:18:55.846Z,4.05
2023-03-27T07:21:23.224Z,1.88
2023-03-27T07:23:49.869Z,2.63
2023-03-27T07:26:27.319Z,2.45
2023-03-27T07:29:00.983Z,2.20
2023-03-27T07:31:45.148Z,1.30
2023-03-27T07:34:16.440Z,1.20
2023-03-27T07:37:04.155Z,1.63
2023-03-27T07:39:31.791Z,1.55
2023-03-27T07:41:58.412Z,1.60
2023-03-27T07:44:30.840Z,1.10
2023-03-27T07:47:03.024Z,1.70
2023-03-27T07:49:39.036Z,1.25
2023-03-27T07:52:11.099Z,1.38
2023-03-27T07:54:48.182Z,1.40
2023-03-27T07:57:16.716Z,1.77
2023-03-27T07:59:46.319Z,1.45
2023-03-27T08:02:21.820Z,1.33
2023-03-27T08:04:48.542Z,1.65
2023-03-27T08:07:15.351Z,1.50
2023-03-27T08:09:43.581Z,1.38
2023-03-27T08:12:10.440Z,1.60
2023-03-27T08:14:41.513Z,1.60
2023-03-27T08:17:16.731Z,1.33
2023-03-27T08:19:46.355Z,1.42
2023-03-27T08:22:14.027Z,1.50
2023-03-27T08:24:59.469Z,1.35
2023-03-27T08:27:27.470Z,1.58
2023-03-27T08:29:54.055Z,1.20
2023-03-27T08:32:20.844Z,1.30
2023-03-27T08:34:49.760Z,1.30
2023-03-27T08:37:21.435Z,1.30
2023-03-27T08:40:19.627Z,1.13
2023-03-27T08:42:49.044Z,1.50
2023-03-27T08:45:27.219Z,1.30
2023-03-27T08:48:03.933Z,1.45
2023-03-27T08:50:33.698Z,1.20
2023-03-27T08:53:14.204Z,1.58
2023-03-27T08:55:44.293Z,1.95
2023-03-27T08:58:19.374Z,1.17
2023-03-27T09:00:53.739Z,1.02
2023-03-27T09:03:57.251Z,1.00
2023-03-27T09:06:28.875Z,0.82
2023-03-27T09:09:09.478Z,1.08
2023-03-27T09:11:37.034Z,1.10
2023-03-27T09:14:10.457Z,1.10
2023-03-27T09:16:49.429Z,1.20
2023-03-27T09:19:46.396Z,1.85
2023-03-27T09:22:21.419Z,1.30
2023-03-27T09:25:03.848Z,1.38
2023-03-27T09:27:51.825Z,1.30
2023-03-27T09:30:37.695Z,1.20
2023-03-27T09:33:13.018Z,1.23
2023-03-27T09:35:42.937Z,1.20
2023-03-27T09:38:13.084Z,1.52
2023-03-27T09:41:00.828Z,1.30
2023-03-27T09:43:35.495Z,1.00
2023-03-27T09:46:02.868Z,1.23
2023-03-27T09:48:36.422Z,1.45
2023-03-27T09:51:28.212Z,1.55
2023-03-27T09:53:58.703Z,1.50
2023-03-27T09:56:29.699Z,1.38
2023-03-27T09:58:57.251Z,1.10
2023-03-27T10:01:25.052Z,1.38
2023-03-27T10:03:57.850Z,1.67
2023-03-27T10:06:42.578Z,1.13
2023-03-27T10:09:30.868Z,1.27
2023-03-27T10:12:07.198Z,2.05
2023-03-27T10:14:36.118Z,1.63
2023-03-27T10:17:03.650Z,1.55
2023-03-27T10:19:38.725Z,1.70
2023-03-27T10:22:17.108Z,1.42
2023-03-27T10:24:46.180Z,1.60
2023-03-27T10:27:43.318Z,1.67
2023-03-27T10:30:36.139Z,1.23
2023-03-27T10:33:29.245Z,1.60
2023-03-27T10:36:09.170Z,1.23
2023-03-27T10:38:37.432Z,0.85
2023-03-27T10:41:28.017Z,1.40
2023-03-27T10:43:56.918Z,1.52
2023-03-27T10:46:25.978Z,1.65
2023-03-27T10:48:57.071Z,1.60
2023-03-27T10:51:45.373Z,1.23
2023-03-27T10:54:17.448Z,1.08
2023-03-27T10:56:55.365Z,1.50
2023-03-27T10:59:38.691Z,1.40
2023-03-27T11:02:22.811Z,1.55
2023-03-27T11:04:56.120Z,1.52
2023-03-27T11:07:26.897Z,1.50
2023-03-27T11:09:58.946Z,1.70
2023-03-27T11:12:32.746Z,1.83
2023-03-27T11:15:02.839Z,2.58
2023-03-27T11:17:38.465Z,1.80
2023-03-27T11:20:26.270Z,1.30
2023-03-27T11:23:24.861Z,1.75
2023-03-27T11:26:11.591Z,1.73
2023-03-27T11:28:46.416Z,1.40
2023-03-27T11:31:22.942Z,1.63
2023-03-27T11:34:06.468Z,1.58
2023-03-27T11:36:40.219Z,1.83
2023-03-27T11:39:36.602Z,1.13
2023-03-27T11:42:16.556Z,1.45
2023-03-27T11:44:43.490Z,1.13
2023-03-27T11:47:28.937Z,1.38
2023-03-27T11:50:08.069Z,1.35
2023-03-27T11:52:40.937Z,2.20
2023-03-27T11:55:25.050Z,1.73
2023-03-27T11:57:52.080Z,1.20
2023-03-27T12:00:34.797Z,1.45
2023-03-27T12:03:07.043Z,1.40
2023-03-27T12:05:48.403Z,1.58
2023-03-27T12:08:16.311Z,1.25
2023-03-27T12:10:47.497Z,1.20
2023-03-27T12:13:41.123Z,1.20
2023-03-27T12:16:18.496Z,1.23
2023-03-27T12:19:21.199Z,1.40
2023-03-27T12:22:23.488Z,1.52
2023-03-27T12:25:00.122Z,1.70
2023-03-27T12:28:22.378Z,1.40
2023-03-27T12:31:30.135Z,1.30
2023-03-27T12:34:20.847Z,1.30
2023-03-27T12:36:48.418Z,1.17
2023-03-27T12:39:20.116Z,1.38
2023-03-27T12:41:46.931Z,1.00
2023-03-27T12:44:30.081Z,1.15
2023-03-27T12:47:05.117Z,0.90
2023-03-27T12:49:47.778Z,1.38
2023-03-27T12:52:25.534Z,1.10
2023-03-27T12:55:18.555Z,1.30
2023-03-27T12:57:57.897Z,1.30
2023-03-27T13:01:00.317Z,1.02
2023-03-27T13:04:07.584Z,1.17
2023-03-27T13:06:42.160Z,1.27
2023-03-27T13:09:18.010Z,1.10
2023-03-27T13:12:05.635Z,1.08
2023-03-27T13:14:42.413Z,1.17
2023-03-27T13:17:33.825Z,1.25
2023-03-27T13:20:16.691Z,1.27
2023-03-27T13:22:48.152Z,1.13
2023-03-27T13:25:28.918Z,1.17
2023-03-27T13:28:17.918Z,1.25
2023-03-27T13:30:57.795Z,0.90
2023-03-27T13:34:15.730Z,1.20
2023-03-27T13:36:48.991Z,1.40
2023-03-27T13:39:22.243Z,1.40
2023-03-27T13:41:56.897Z,1.02
2023-03-27T13:44:36.648Z,0.98
2023-03-27T13:47:30.278Z,1.10
2023-03-27T13:50:15.418Z,1.42
2023-03-27T13:53:01.134Z,0.90
2023-03-27T13:56:27.904Z,1.10
2023-03-27T13:59:18.370Z,1.20
2023-03-27T14:01:45.938Z,0.95
2023-03-27T14:04:21.449Z,0.90
2023-03-27T14:06:49.900Z,1.27
2023-03-27T14:09:25.501Z,1.30
2023-03-27T14:12:07.365Z,1.00
2023-03-27T14:14:52.667Z,0.90
2023-03-27T14:17:22.439Z,1.38
2023-03-27T14:20:08.261Z,1.10
2023-03-27T14:22:56.967Z,1.10
2023-03-27T14:25:36.875Z,1.10
2023-03-27T14:30:54.920Z,0.93
2023-03-27T14:34:03.094Z,0.88
2023-03-27T14:36:34.195Z,1.40
2023-03-27T14:39:24.063Z,1.80
2023-03-27T14:41:58.257Z,1.20
2023-03-27T14:44:27.619Z,1.70
2023-03-27T14:47:03.798Z,1.17
2023-03-27T14:49:36.009Z,1.58
2023-03-27T14:52:07.867Z,1.23
2023-03-27T14:54:55.721Z,1.55
2023-03-27T14:57:28.177Z,1.73
2023-03-27T14:59:57.565Z,1.23
2023-03-27T15:02:29.135Z,1.10
2023-03-27T15:05:04.118Z,1.05
2023-03-27T15:07:35.298Z,0.90
2023-03-27T15:10:20.889Z,1.33
2023-03-27T15:13:09.021Z,1.05
2023-03-27T15:15:42.760Z,0.98
2023-03-27T15:18:30.912Z,1.13
2023-03-27T15:21:04.267Z,1.00
2023-03-27T15:23:51.251Z,1.10
2023-03-27T15:26:24.659Z,2.50
2023-03-27T15:28:53.846Z,1.00
2023-03-27T15:31:20.753Z,0.88
2023-03-27T15:34:02.328Z,0.90
2023-03-27T15:36:33.094Z,1.08
2023-03-27T15:39:04.150Z,0.90
2023-03-27T15:41:33.791Z,1.48
2023-03-27T15:44:09.727Z,1.15
2023-03-27T15:46:47.032Z,0.95
2023-03-27T15:49:32.265Z,1.58
2023-03-27T15:54:28.561Z,1.40
2023-03-27T15:57:10.877Z,1.13
2023-03-27T15:59:52.797Z,1.67
2023-03-27T16:02:21.315Z,1.20
2023-03-27T16:04:53.737Z,1.95
2023-03-27T16:07:43.366Z,1.20
2023-03-27T16:10:10.265Z,1.38
2023-03-27T16:12:39.451Z,1.15
2023-03-27T16:15:08.441Z,1.90
2023-03-27T16:17:45.352Z,1.40
2023-03-27T16:20:12.856Z,1.25
2023-03-27T16:22:39.746Z,1.17
2023-03-27T16:25:08.707Z,0.80
2023-03-27T16:27:39.610Z,1.02
2023-03-27T16:30:08.001Z,1.52
2023-03-27T16:32:34.913Z,1.05
2023-03-27T16:35:01.619Z,1.52
2023-03-27T16:37:28.259Z,1.30
2023-03-27T16:39:55.083Z,1.17
2023-03-27T16:42:25.794Z,1.27
2023-03-27T16:44:52.802Z,1.45
2023-03-27T16:47:20.481Z,1.67
2023-03-27T16:49:56.285Z,1.40
2023-03-27T16:52:27.176Z,1.40
2023-03-27T16:54:53.984Z,1.52
2023-03-27T16:57:21.202Z,1.60
2023-03-27T16:59:47.812Z,1.70
2023-03-27T17:02:14.780Z,1.50
2023-03-27T17:04:43.854Z,4.10
2023-03-27T17:07:10.813Z,1.35
2023-03-27T17:09:37.391Z,1.60
2023-03-27T17:12:04.188Z,1.15
2023-03-27T17:14:31.030Z,1.38
2023-03-27T17:16:57.633Z,1.13
2023-03-27T17:19:24.241Z,1.42
2023-03-27T17:21:50.946Z,1.63
2023-03-27T17:24:19.957Z,1.63
2023-03-27T17:26:46.668Z,1.40
2023-03-27T17:29:13.267Z,1.38
2023-03-27T17:31:40.089Z,1.63
2023-03-27T17:34:07.588Z,1.73
2023-03-27T17:36:42.881Z,1.30
2023-03-27T17:39:11.927Z,1.65
2023-03-27T17:41:38.614Z,1.30
2023-03-27T17:44:07.415Z,1.17
2023-03-27T17:46:34.395Z,1.60
2023-03-27T17:49:01.405Z,2.00
2023-03-27T17:51:27.998Z,1.50
2023-03-27T17:53:54.690Z,1.30
2023-03-27T17:56:21.211Z,1.17
2023-03-27T17:58:48.974Z,1.50
2023-03-27T18:01:17.446Z,1.50
2023-03-27T18:03:44.688Z,1.50
2023-03-27T18:06:11.520Z,1.70
2023-03-27T18:08:38.112Z,2.10
2023-03-27T18:11:08.461Z,1.83
2023-03-27T18:13:35.032Z,1.55
2023-03-27T18:16:03.573Z,1.50
2023-03-27T18:18:33.072Z,1.80
2023-03-27T18:20:59.518Z,1.60
2023-03-27T18:23:27.073Z,1.20
2023-03-27T18:25:53.789Z,1.70
2023-03-27T18:28:20.817Z,1.60
2023-03-27T18:30:47.482Z,1.40
2023-03-27T18:33:14.769Z,1.40
2023-03-27T18:35:42.863Z,1.58
2023-03-27T18:38:11.585Z,1.38
2023-03-27T18:40:38.189Z,1.80
2023-03-27T18:43:04.827Z,2.33
2023-03-27T18:45:31.358Z,2.65
2023-03-27T18:47:58.144Z,2.42
2023-03-27T18:50:24.730Z,2.22
2023-03-27T18:52:51.247Z,2.47
2023-03-27T18:55:18.005Z,1.58
2023-03-27T18:57:45.262Z,1.85
2023-03-27T19:00:18.380Z,1.58
2023-03-27T19:02:45.462Z,2.53
2023-03-27T19:05:12.993Z,2.30
2023-03-27T19:07:44.528Z,2.47
2023-03-27T19:10:12.853Z,1.92
2023-03-27T19:12:39.488Z,2.35
2023-03-27T19:15:35.501Z,2.20
2023-03-27T19:18:21.201Z,1.90
2023-03-27T19:21:08.504Z,2.35
2023-03-27T19:23:52.782Z,2.75
2023-03-27T19:26:23.297Z,2.50
2023-03-27T19:28:50.016Z,2.38
2023-03-27T19:31:17.117Z,2.08
2023-03-27T19:33:43.991Z,2.75
2023-03-27T19:36:10.666Z,2.40
2023-03-27T19:38:38.539Z,2.83
2023-03-27T19:41:07.848Z,2.40
2023-03-27T19:43:34.843Z,2.63
2023-03-27T19:46:15.073Z,3.00
2023-03-27T19:48:44.267Z,2.63
2023-03-27T19:51:19.124Z,2.30
2023-03-27T19:53:49.946Z,1.42
2023-03-27T19:56:20.019Z,1.75
2023-03-27T19:58:46.658Z,1.80
2023-03-27T20:01:13.745Z,1.77
2023-03-27T20:03:40.443Z,1.73
2023-03-27T20:06:12.946Z,1.60
2023-03-27T20:08:41.129Z,1.30
2023-03-27T20:11:07.801Z,1.60
2023-03-27T20:13:42.461Z,1.27
2023-03-27T20:16:14.394Z,1.65
2023-03-27T20:18:41.852Z,1.60
2023-03-27T20:21:09.605Z,1.40
2023-03-27T20:23:37.722Z,1.70
2023-03-27T20:26:05.315Z,1.60
2023-03-27T20:28:35.667Z,1.48
2023-03-27T20:31:05.816Z,1.30
2023-03-27T20:33:32.483Z,1.20
2023-03-27T20:36:01.083Z,1.25
2023-03-27T20:38:30.801Z,1.30
2023-03-27T20:40:58.672Z,1.30
2023-03-27T20:43:27.207Z,1.27
2023-03-27T20:45:55.012Z,1.58
2023-03-27T20:48:22.149Z,1.60
2023-03-27T20:50:51.301Z,1.30
2023-03-27T20:53:33.607Z,1.23
2023-03-27T20:56:02.456Z,1.30
2023-03-27T20:58:29.255Z,1.50
2023-03-27T21:00:58.831Z,1.60
2023-03-27T21:03:25.488Z,1.58
2023-03-27T21:05:52.210Z,1.52
2023-03-27T21:08:18.741Z,2.22
2023-03-27T21:10:54.249Z,1.60
2023-03-27T21:13:21.405Z,1.40
2023-03-27T21:15:47.861Z,1.50
2023-03-27T21:18:16.783Z,1.58
2023-03-27T21:20:43.365Z,1.90
2023-03-27T21:23:09.981Z,1.60
2023-03-27T21:25:36.617Z,1.30
2023-03-27T21:28:06.327Z,1.60
2023-03-27T21:30:47.217Z,1.80
2023-03-27T21:33:16.493Z,1.13
2023-03-27T21:35:45.698Z,1.40
2023-03-27T21:38:12.876Z,1.30
2023-03-27T21:40:39.451Z,1.20
2023-03-27T21:43:06.892Z,1.45
2023-03-27T21:45:33.564Z,1.63
2023-03-27T21:48:00.480Z,1.60
2023-03-27T21:50:27.009Z,1.60
2023-03-27T21:52:53.637Z,1.67
2023-03-27T21:55:20.350Z,2.60
2023-03-27T21:57:46.999Z,1.83
2023-03-27T22:00:14.567Z,2.53
2023-03-27T22:02:41.893Z,1.85
2023-03-27T22:05:08.700Z,2.13
2023-03-27T22:07:35.342Z,2.05
2023-03-27T22:10:02.149Z,2.05
2023-03-27T22:12:28.665Z,1.92
2023-03-27T22:14:55.365Z,1.80
2023-03-27T22:17:22.112Z,1.88
2023-03-27T22:19:48.587Z,1.75
2023-03-27T22:22:15.545Z,2.00
2023-03-27T22:24:42.061Z,2.55
2023-03-27T22:27:08.662Z,2.33
2023-03-27T22:29:35.332Z,6.05
2023-03-27T22:32:02.269Z,5.95
2023-03-27T22:34:28.798Z,6.72
2023-03-27T22:36:55.436Z,5.90
2023-03-27T22:39:21.962Z,5.45
2023-03-27T22:41:48.549Z,5.03
2023-03-27T22:44:15.027Z,3.75
2023-03-27T22:46:41.649Z,2.60
2023-03-27T22:49:08.259Z,2.67
2023-03-27T22:51:34.887Z,2.50
2023-03-27T22:54:01.533Z,2.60
2023-03-27T22:56:28.208Z,3.33
2023-03-27T22:58:54.703Z,2.78
2023-03-27T23:01:21.496Z,3.05
2023-03-27T23:03:48.197Z,2.47
2023-03-27T23:06:18.676Z,2.33
2023-03-27T23:08:45.314Z,2.58
2023-03-27T23:11:12.754Z,2.03
2023-03-27T23:13:39.338Z,2.10
2023-03-27T23:16:06.154Z,1.80
2023-03-27T23:18:32.896Z,1.60
2023-03-27T23:21:03.523Z,1.70
2023-03-27T23:23:31.258Z,1.27
2023-03-27T23:25:58.157Z,1.70
2023-03-27T23:28:25.049Z,1.80
2023-03-27T23:30:52.290Z,1.40
2023-03-27T23:33:19.019Z,1.30
2023-03-27T23:35:45.754Z,1.67
2023-03-27T23:38:12.431Z,1.88
2023-03-27T23:40:39.111Z,1.20
2023-03-27T23:43:05.638Z,1.60
2023-03-27T23:45:32.080Z,1.35
2023-03-27T23:47:58.875Z,1.23
2023-03-27T23:50:25.821Z,1.20
2023-03-27T23:52:52.444Z,1.40
2023-03-27T23:55:19.036Z,1.55
2023-03-27T23:57:45.826Z,1.60
